Terminal Aerodrome Forecast
Issued by NWS

Home | Current Version | Previous Version | Text Only | Print | Product List | Glossary On
Versions: 1 2 3 4 5 6 7 8 9 10 11 12 13 14 15 16 17 18 19 20 21 22 23 24 25 26 27 28 29 30 31
000
FTUS45 KBOI 201121
TAFMYL
TAF
KMYL 201121Z 2012/2112 VRB03KT P6SM BKN070
     FM202000 26007KT P6SM BKN200
     FM210300 VRB03KT P6SM BKN070 PROB30 2108/2112 P6SM -SHRA
      OVC040=

USA.gov is the U.S. government's official web portal to all federal, state and local government web resources and services.